South Woodbury, Vermont
Current Conditions -  °F | °C
As of 6:51 PM on Saturday 20 Dec 2014 (Local Time) from KMPV Reporting Station
Clear Clear  
Wind Chill: 13°   Ceiling: Unl
Heat Index: 13°   Visibility: 9mi
Dew Point: 11°   Wind: 3mph
Humidity: 92%   Direction: 170°S
Pressure: 30.29"   Gusts: NA
Location:  44.3541°N, 72.4394°W
Report Text: KMPV 202351Z AUTO 17003KT 9SM CLR M11/M12 A3029 RMK AO2 SLP285 T11061117 11033 21111 53005
Loading
Personal Weather Stations






























Interactive Weather Map New forecast layout! Learn more

10-Day Weather Forecast

Advertisements
Track Severe Weather on mobile